• Join FlightAware (Why Join?)
  • Login
  • US Flag 
03:11PM EDT


 

Airport Tracker/Info


-or-


 

Live Flight TrackerFlight Track Log ✈ EJA826 ✈ 11-Jul-2013 ✈ KTEB - KEWB

Flight Track Log - Related Links

Times and Time Zones

All times are in EDT time to prevent confusion due to time zone crossing. See the EJA826 flight status page for this flight to view local times or setup timezone preferences in your user account.

Time Position Orientation Groundspeed Altitude Reporting Facility
EDT Latitude Longitude Course Direction KTS MPH feet Rate Location/Type
04:15PM 40.8833 -74.0500 339° North 187 215 1,700  Level New York TRACON
04:16PM 40.9167 -74.0667 339° North 204 235 5,000 2,160 Climbing New York TRACON
04:17PM 40.9833 -74.1333 323° Northwest 269 310 6,100 540 Climbing New York TRACON
04:18PM 41.0500 -74.1333 360° North 277 319 6,100 720 Level New York TRACON
04:19PM 41.1167 -74.1167 11° North 282 325 7,600 1,860 Climbing New York TRACON
04:21PM 41.1775 -73.9486 64° Northeast 303 349 11,000 1,740 Climbing Boston Center
04:22PM 41.2081 -73.8333 71° East 327 376 12,200 960 Climbing Boston Center
04:23PM 41.2303 -73.7236 75° East 316 364 13,000 360 Climbing Boston Center
04:24PM 41.2400 -73.5911 84° East 338 389 13,000  Level Boston Center
04:25PM 41.2494 -73.4617 84° East 348 400 13,000  Level Boston Center
04:26PM 41.2547 -73.3456 87° East 353 406 13,000 -60 Level Boston Center
04:27PM 41.2664 -73.1886 84° East 348 400 12,900  Descending Boston Center
04:28PM 41.2714 -73.0422 87° East 353 406 13,000  Climbing Boston Center
04:29PM 41.2742 -72.9097 88° East 353 406 13,000  Level Boston Center
04:30PM 41.2869 -72.7772 83° East 358 412 13,000  Level Boston Center
04:31PM 41.2978 -72.6556 83° East 364 419 13,000  Level Boston Center
04:32PM 41.3042 -72.5092 87° East 364 419 13,000 -120 Level Boston Center
04:33PM 41.3106 -72.4428 83° East 357 411 12,900 -660 Descending Boston Center
04:34PM 41.3228 -72.2383 85° East 364 419 11,700 -840 Descending Boston Center
04:35PM 41.3267 -72.1139 88° East 355 409 11,000 -360 Descending Boston Center
04:36PM 41.3367 -71.9839 84° East 352 405 11,000 -480 Level Boston Center
04:37PM 41.3422 -71.8428 87° East 349 402 10,000 -1,440 Descending Boston Center
04:38PM 41.3478 -71.7211 86° East 333 383 8,000 -2,100 Descending Boston Center
04:39PM 41.3511 -71.6078 88° East 297 342 5,800 -1,800 Descending Boston Center
04:40PM 41.3586 -71.4917 85° East 290 334 4,200 -1,260 Descending Boston Center
04:41PM 41.3867 -71.3886 70° East 262 302 3,000 -600 Descending Boston Center
04:42PM 41.4278 -71.3244 49° Northeast 249 287 3,000 -60 Level Boston Center
04:43PM 41.4792 -71.2514 47° Northeast 242 278 2,900 -480 Descending Boston Center
04:44PM 41.4847 -71.1875 83° East 202 232 2,000 -900 Descending Boston Center